createdAt,value
2023-01-08T00:02:19.766Z,98624.33
2023-01-08T00:12:44.302Z,98618.71
2023-01-08T00:23:11.334Z,98608.84
2023-01-08T00:33:36.107Z,98602.95
2023-01-08T00:44:00.459Z,98591.20
2023-01-08T00:54:24.703Z,98591.98
2023-01-08T01:04:48.870Z,98593.30
2023-01-08T01:15:15.655Z,98589.44
2023-01-08T01:25:39.880Z,98576.65
2023-01-08T01:36:05.247Z,98567.86
2023-01-08T01:46:37.956Z,98546.58
2023-01-08T01:57:02.707Z,98534.55
2023-01-08T02:07:36.547Z,98530.71
2023-01-08T02:18:07.910Z,98531.50
2023-01-08T02:28:36.769Z,98524.25
2023-01-08T02:39:28.809Z,98523.18
2023-01-08T02:50:00.980Z,98523.13
2023-01-08T03:00:26.471Z,98523.51
2023-01-08T03:11:02.948Z,98515.23
2023-01-08T03:21:28.202Z,98509.81
2023-01-08T03:31:57.005Z,98499.91
2023-01-08T03:42:21.646Z,98503.80
2023-01-08T03:52:45.962Z,98505.93
2023-01-08T04:03:10.221Z,98494.38
2023-01-08T04:13:34.378Z,98487.66
2023-01-08T04:23:58.589Z,98489.66
2023-01-08T04:34:22.785Z,98483.69
2023-01-08T04:45:33.409Z,98458.94
2023-01-08T04:56:06.098Z,98462.87
2023-01-08T05:06:34.750Z,98465.94
2023-01-08T05:17:00.728Z,98475.99
2023-01-08T05:27:29.119Z,98458.96
2023-01-08T05:37:56.717Z,98442.95
2023-01-08T05:48:24.214Z,98443.77
2023-01-08T05:58:54.685Z,98441.23
2023-01-08T06:09:22.596Z,98445.20
2023-01-08T06:19:50.216Z,98429.74
2023-01-08T06:30:18.041Z,98420.69
2023-01-08T06:40:45.665Z,98420.08
2023-01-08T06:51:13.336Z,98426.32
2023-01-08T07:01:41.005Z,98418.03
2023-01-08T07:12:12.957Z,98416.36
2023-01-08T07:22:40.700Z,98415.56
2023-01-08T07:33:08.971Z,98407.05
2023-01-08T07:43:37.211Z,98395.02
2023-01-08T07:54:05.689Z,98380.73
2023-01-08T08:04:33.201Z,98371.17
2023-01-08T08:15:00.816Z,98364.75
2023-01-08T08:25:28.365Z,98355.61
2023-01-08T08:35:55.855Z,98350.85
2023-01-08T08:46:25.464Z,98342.64
2023-01-08T08:56:53.062Z,98339.17
2023-01-08T09:07:20.679Z,98332.85
2023-01-08T09:17:53.312Z,98326.92
2023-01-08T09:28:20.836Z,98311.40
2023-01-08T09:38:48.640Z,98287.77
2023-01-08T09:49:22.662Z,98263.47
2023-01-08T09:59:51.611Z,98244.55
2023-01-08T10:10:23.071Z,98229.77
2023-01-08T10:20:51.238Z,98207.73
2023-01-08T10:31:19.777Z,98193.52
2023-01-08T10:41:48.900Z,98180.22
2023-01-08T10:52:28.959Z,98178.36
2023-01-08T11:02:57.560Z,98175.45
2023-01-08T11:13:24.842Z,98156.43
2023-01-08T11:24:06.407Z,98142.39
2023-01-08T11:34:40.637Z,98129.85
2023-01-08T11:45:21.141Z,98118.30
2023-01-08T11:56:03.266Z,98113.77
2023-01-08T12:06:41.081Z,98107.52
2023-01-08T12:17:30.955Z,98091.09
2023-01-08T12:28:19.436Z,98080.06
2023-01-08T12:38:58.979Z,98077.01
2023-01-08T12:49:34.115Z,98076.59
2023-01-08T13:00:07.543Z,98078.39
2023-01-08T13:10:40.756Z,98074.05
2023-01-08T13:21:12.430Z,98066.39
2023-01-08T13:31:43.344Z,98079.02
2023-01-08T13:42:28.532Z,98086.92
2023-01-08T13:53:00.863Z,98086.85
2023-01-08T14:03:30.444Z,98079.09
2023-01-08T14:13:58.705Z,98083.31
2023-01-08T14:24:28.849Z,98078.07
2023-01-08T14:34:55.571Z,98070.07
2023-01-08T14:45:25.721Z,98063.08
2023-01-08T14:55:55.984Z,98055.30
2023-01-08T15:06:30.498Z,98029.26
2023-01-08T15:17:01.043Z,98019.64
2023-01-08T15:27:31.375Z,98016.38
2023-01-08T15:37:58.858Z,98014.09
2023-01-08T15:48:26.387Z,98014.06
2023-01-08T15:58:54.221Z,98004.77
2023-01-08T16:09:21.724Z,98001.71
2023-01-08T16:19:49.208Z,98001.61
2023-01-08T16:30:17.640Z,97993.52
2023-01-08T16:40:45.158Z,97988.05
2023-01-08T16:51:13.779Z,97985.29
2023-01-08T17:01:41.367Z,97992.89
2023-01-08T17:12:09.726Z,97997.53
2023-01-08T17:22:37.806Z,97996.33
2023-01-08T17:33:05.577Z,97991.83
2023-01-08T17:43:36.731Z,97993.52
2023-01-08T17:54:04.441Z,97987.66
2023-01-08T18:04:33.197Z,97982.34
2023-01-08T18:15:00.824Z,97974.42
2023-01-08T18:25:28.428Z,97966.63
2023-01-08T18:35:55.975Z,97956.24
2023-01-08T18:46:23.499Z,97943.80
2023-01-08T18:56:51.634Z,97934.41
2023-01-08T19:07:20.170Z,97920.62
2023-01-08T19:17:47.809Z,97903.91
2023-01-08T19:28:15.417Z,97893.99
2023-01-08T19:38:43.710Z,97891.76
2023-01-08T19:49:12.053Z,97880.65
2023-01-08T19:59:39.704Z,97879.52
2023-01-08T20:10:08.782Z,97867.74
2023-01-08T20:20:36.341Z,97837.58
2023-01-08T20:31:10.240Z,97815.98
2023-01-08T20:41:38.145Z,97815.56
2023-01-08T20:52:06.426Z,97818.60
2023-01-08T21:02:34.033Z,97800.16
2023-01-08T21:13:01.667Z,97791.82
2023-01-08T21:23:29.836Z,97783.81
2023-01-08T21:33:59.431Z,97774.34
2023-01-08T21:44:45.607Z,97759.31
2023-01-08T21:55:16.954Z,97749.81
2023-01-08T22:05:44.591Z,97748.02
2023-01-08T22:16:12.871Z,97744.88
2023-01-08T22:26:40.671Z,97732.70
2023-01-08T22:37:08.253Z,97714.56
2023-01-08T22:47:35.882Z,97701.02
2023-01-08T22:58:03.429Z,97704.63
2023-01-08T23:08:31.068Z,97693.39
2023-01-08T23:18:59.070Z,97674.45
2023-01-08T23:29:29.711Z,97643.25
2023-01-08T23:39:57.232Z,97631.88
2023-01-08T23:50:24.691Z,97615.91
